Portada
METAR-TAF:

METAR-TAF

Aeroports :

East Jakarta, Indonèsia

latitud: 06-15-59S, longitud: 106-53-28E, altitud: 25 m

Observació

L'informe es va fer fa 33 minuts, a les 00:30 UTC
Vent 4 kt del Sud-Est
Temperatura 28°C
Humitat 84%
Pressió 1010 hPa
Visibilitat: 3000 m
Escasses núvols a una alçada de 2000 ft
calitja

METAR: WIHH 040030Z 14004KT 3000 HZ FEW020 28/25 Q1010 NOSIG

Hora: 08:03 (01:03 UTC)

Pronòstic

L'informe es va fer fa 2 hores i 3 minuts, a les 23:00 UTC
Pronòstic vàlid del 04 a les 00 UTC al 05 a les 00 UTC
Vent 10 kt del Oest
Visibilitat: 6000 m
Núvols disperses a una alçada de 2000 ft
Temporalment
l' 04 a les 08 UTC al 04 a les 11 UTC
Visibilitat: 3000 m
Escasses núvols a una alçada de 1800 ft, Cumulonimbus.
pluja
Evolucionant progressivament
l' 04 a les 12 UTC al 04 a les 14 UTC
Vent 4 kt del Sud/Sud-Est
Visibilitat: 5000 m
calitja

TAF: WIHH 032300Z 0400/0500 26010KT 6000 SCT020 TEMPO 0408/0411 3000 -RA FEW018CB BECMG 0412/0414 15004KT 5000 HZ

Observacions i pronòstics meteorològics de més de 4000 aeroports (METAR i TAF).

Les estacions disponibles són els punts grocs i vermells al mapa.

Posi el ratolí al punt desitjat per veure el nom de l'estació.

Feu clic per veure les observacions i els pronòstics meteorològics.

Per canviar el mapa: feu clic els botons verds amb una creu de color negre per apropar; al botó verd amb un guió per allunyar la imatge; o en les fletxes verdes per a mapes adjacents.


METAR-TAF: